Time;durP1;ratioP1;P1;durP2;ratioP2;P2;SDS_P1;SDS_P2;PMS_P1;PMS_P2;Temp;Humidity;BMP_temperature;BMP_pressure;BME280_temperature;BME280_humidity;BME280_pressure;Samples;Min_cycle;Max_cycle;Signal;HPM_P1;HPM_P2
2022/03/24 00:00:57;;;;;;;22.23;13.90;;;8.80;41.80;;;9.29;37.36;98689.59;5027430;28;20151;-41
2022/03/24 00:03:25;;;;;;;21.43;13.90;;;8.70;42.10;;;9.28;37.25;98688.72;5027479;28;20045;-41
2022/03/24 00:05:54;;;;;;;23.03;13.13;;;8.70;42.00;;;9.24;37.46;98685.47;5026196;28;20051;-41
2022/03/24 00:08:22;;;;;;;21.60;12.70;;;8.60;41.80;;;9.21;37.28;98682.25;5025582;28;20468;-41
2022/03/24 00:10:50;;;;;;;22.07;14.50;;;8.60;41.70;;;9.19;37.27;98679.72;5026414;28;20231;-41
2022/03/24 00:13:18;;;;;;;26.70;14.83;;;8.60;41.80;;;9.21;37.19;98684.91;5027404;28;20167;-41
2022/03/24 00:15:46;;;;;;;21.83;14.87;;;8.60;41.50;;;9.21;37.45;98688.41;5026428;28;20049;-41
2022/03/24 00:18:13;;;;;;;19.97;14.07;;;8.70;42.00;;;9.19;37.58;98677.06;5026731;28;20308;-41
2022/03/24 00:20:41;;;;;;;19.33;13.40;;;8.70;42.20;;;9.18;37.71;98685.16;5025988;28;20049;-41
2022/03/24 00:23:09;;;;;;;21.90;14.10;;;8.60;42.40;;;9.17;37.61;98686.97;5027364;28;20075;-41
2022/03/24 00:25:37;;;;;;;24.83;14.03;;;8.60;42.10;;;9.16;37.55;98687.91;5025737;28;20063;-41
2022/03/24 00:28:06;;;;;;;19.97;13.43;;;8.60;42.10;;;9.16;37.39;98684.44;5027053;28;20054;-41
2022/03/24 00:30:34;;;;;;;27.97;15.03;;;8.60;42.10;;;9.14;37.61;98679.25;5025682;28;20053;-41
2022/03/24 00:33:01;;;;;;;23.47;14.00;;;8.60;42.10;;;9.14;37.63;98681.06;5023929;28;20060;-41
2022/03/24 00:35:29;;;;;;;20.57;14.20;;;8.60;42.50;;;9.12;37.80;98675.03;5024127;28;20444;-41
2022/03/24 00:37:57;;;;;;;21.30;13.33;;;8.60;42.60;;;9.09;37.88;98678.75;5024648;28;20060;-41
2022/03/24 00:40:25;;;;;;;23.50;14.37;;;8.50;42.70;;;9.03;37.83;98672.16;5023894;28;20057;-41
2022/03/24 00:42:53;;;;;;;22.63;13.77;;;8.40;42.60;;;9.01;38.03;98673.25;5023615;28;20057;-41
2022/03/24 00:45:20;;;;;;;18.93;13.13;;;8.40;42.70;;;8.95;38.02;98665.78;5026388;28;20067;-41
2022/03/24 00:47:48;;;;;;;22.57;13.73;;;8.30;42.90;;;8.89;38.22;98661.81;5026062;28;20251;-41
2022/03/24 00:50:16;;;;;;;23.73;14.07;;;8.30;43.20;;;8.82;38.29;98661.50;5025652;28;20295;-41
2022/03/24 00:52:45;;;;;;;23.47;13.77;;;8.20;43.20;;;8.80;38.50;98666.09;5024743;28;20053;-41
2022/03/24 00:55:20;;;;;;;21.67;13.77;;;8.20;43.50;;;8.78;38.22;98664.50;5025505;28;20060;-41
2022/03/24 00:57:51;;;;;;;21.17;13.93;;;8.20;43.40;;;8.74;38.43;98658.59;5023950;28;20064;-41
2022/03/24 01:00:22;;;;;;;22.47;13.77;;;8.20;43.40;;;8.70;38.61;98662.47;5024371;28;20049;-41
2022/03/24 01:02:53;;;;;;;26.50;15.27;;;8.10;43.90;;;8.64;38.76;98660.31;5022994;28;20222;-41
2022/03/24 01:05:28;;;;;;;24.47;13.73;;;8.00;43.90;;;8.60;38.62;98664.19;5024062;28;20335;-41
2022/03/24 01:07:56;;;;;;;20.20;13.10;;;8.00;44.10;;;8.59;38.73;98657.22;5026175;28;20049;-41
2022/03/24 01:10:24;;;;;;;21.90;13.73;;;8.00;43.80;;;8.55;38.85;98656.63;5024723;28;20037;-42
2022/03/24 01:12:52;;;;;;;24.00;13.73;;;7.90;44.10;;;8.56;38.66;98657.44;5025246;28;20064;-42
2022/03/24 01:15:22;;;;;;;20.83;14.13;;;7.90;43.80;;;8.52;38.71;98654.19;5025333;28;20053;-42
2022/03/24 01:17:50;;;;;;;21.23;13.67;;;8.00;44.30;;;8.49;38.77;98649.13;5025144;28;20050;-42
2022/03/24 01:20:19;;;;;;;20.73;13.80;;;7.90;44.10;;;8.47;39.03;98643.97;5024840;28;20053;-42
2022/03/24 01:22:48;;;;;;;22.67;14.03;;;7.90;44.60;;;8.44;39.18;98646.00;5024400;28;20060;-42
2022/03/24 01:25:16;;;;;;;20.67;13.73;;;7.80;44.60;;;8.40;39.00;98641.88;5025886;28;20053;-42
2022/03/24 01:27:45;;;;;;;25.50;14.07;;;7.70;44.80;;;8.34;39.54;98647.69;5024988;28;20050;-42
2022/03/24 01:30:13;;;;;;;19.33;14.10;;;7.70;45.20;;;8.29;39.51;98643.56;5025227;28;20383;-41
2022/03/24 01:32:41;;;;;;;24.17;14.13;;;7.70;44.90;;;8.32;38.97;98641.63;5024867;28;20125;-42
2022/03/24 01:35:10;;;;;;;21.40;13.17;;;7.70;44.60;;;8.26;39.27;98643.84;5022408;28;20057;-42
2022/03/24 01:37:38;;;;;;;23.10;14.03;;;7.70;44.80;;;8.23;39.29;98643.22;5024864;28;20049;-42
2022/03/24 01:40:10;;;;;;;21.10;13.33;;;7.60;45.20;;;8.20;39.73;98643.47;5024132;28;20385;-42
2022/03/24 01:42:39;;;;;;;21.13;13.80;;;7.60;45.50;;;8.16;39.47;98637.59;5023636;28;20045;-42
2022/03/24 01:45:09;;;;;;;22.63;15.33;;;7.50;45.50;;;8.14;39.35;98636.81;5023221;28;20061;-42
2022/03/24 01:47:37;;;;;;;22.80;14.67;;;7.50;45.50;;;8.12;39.85;98633.44;5022783;28;20064;-41
2022/03/24 01:50:08;;;;;;;25.57;15.17;;;7.50;45.70;;;8.08;39.93;98638.19;5023568;28;20152;-41
2022/03/24 01:52:36;;;;;;;27.10;15.73;;;7.50;45.60;;;8.08;39.80;98632.88;5021370;28;20079;-42
2022/03/24 01:55:07;;;;;;;23.73;14.10;;;7.40;45.70;;;8.03;39.82;98632.38;5023637;28;20112;-41
2022/03/24 01:57:36;;;;;;;24.20;15.17;;;7.40;45.80;;;8.00;39.76;98626.47;5024978;28;20061;-41
2022/03/24 02:00:07;;;;;;;24.10;14.37;;;7.40;46.00;;;7.97;39.80;98622.28;5023564;28;20221;-41
2022/03/24 02:02:43;;;;;;;23.13;14.30;;;7.40;46.20;;;7.92;40.45;98628.91;5025147;28;20049;-41
2022/03/24 02:05:12;;;;;;;23.50;14.90;;;7.30;46.50;;;7.89;40.24;98630.00;4990561;28;20512;-41
2022/03/24 02:07:42;;;;;;;23.13;14.33;;;7.30;46.60;;;7.89;40.77;98628.19;5022634;28;20049;-41
2022/03/24 02:10:11;;;;;;;27.60;15.77;;;7.20;46.50;;;7.91;40.26;98628.06;5022115;28;20057;-41
2022/03/24 02:12:42;;;;;;;27.47;14.97;;;7.40;46.20;;;7.90;40.40;98623.72;5023459;28;20389;-41
2022/03/24 02:15:11;;;;;;;24.30;14.50;;;7.30;45.80;;;7.89;40.26;98620.22;5022668;28;20056;-41
2022/03/24 02:17:39;;;;;;;23.53;13.40;;;7.30;45.90;;;7.86;40.13;98620.44;5022864;28;20045;-41
2022/03/24 02:20:09;;;;;;;24.70;14.40;;;7.30;46.00;;;7.86;40.38;98620.44;5025168;28;20041;-42
2022/03/24 02:22:38;;;;;;;21.63;13.33;;;7.30;46.10;;;7.84;40.35;98619.72;5023492;28;20209;-42
2022/03/24 02:25:09;;;;;;;23.57;14.30;;;7.20;46.20;;;7.81;40.59;98625.28;5024586;28;20231;-42
2022/03/24 02:27:39;;;;;;;19.47;13.90;;;7.20;46.20;;;7.76;40.85;98624.78;5023421;28;20053;-42
2022/03/24 02:30:09;;;;;;;24.60;15.40;;;7.20;46.50;;;7.75;40.29;98623.09;5023957;28;20067;-42
2022/03/24 02:32:38;;;;;;;23.93;13.87;;;7.10;46.30;;;7.71;40.91;98618.16;5025201;28;20061;-43
2022/03/24 02:35:07;;;;;;;22.17;13.67;;;7.10;47.50;;;7.66;40.96;98616.72;5025210;28;20065;-42
2022/03/24 02:37:35;;;;;;;25.33;15.07;;;7.00;46.90;;;7.61;40.98;98613.56;5023517;28;20049;-43
2022/03/24 02:40:04;;;;;;;21.97;14.63;;;6.90;47.20;;;7.52;41.73;98616.91;5024926;28;20332;-43
2022/03/24 02:42:32;;;;;;;23.57;14.43;;;6.80;47.90;;;7.51;40.92;98619.72;5023510;28;20054;-42
2022/03/24 02:45:06;;;;;;;21.97;13.60;;;6.80;47.40;;;7.52;41.43;98616.91;5024487;28;20212;-42
2022/03/24 02:47:34;;;;;;;;;;;6.90;47.70;;;7.47;41.19;98614.63;5026739;28;20055;-42
2022/03/24 02:50:04;;;;;;;23.23;14.33;;;6.80;50.00;;;7.49;40.92;98623.31;5027387;28;19935;-42
2022/03/24 02:52:32;;;;;;;23.97;14.20;;;6.80;47.50;;;7.48;41.19;98612.81;5026641;28;20136;-43
2022/03/24 02:55:00;;;;;;;21.37;13.90;;;6.80;47.30;;;7.44;40.93;98614.03;5027501;28;20120;-42
2022/03/24 02:57:28;;;;;;;23.03;14.47;;;6.80;47.60;;;7.40;41.51;98620.50;5028578;28;20299;-42
2022/03/24 02:59:55;;;;;;;23.37;14.27;;;6.70;47.50;;;7.39;41.55;98618.84;5027868;28;20046;-43
2022/03/24 03:02:23;;;;;;;28.43;14.97;;;6.70;47.50;;;7.35;41.00;98617.38;5028760;28;20733;-44
2022/03/24 03:04:53;;;;;;;25.00;14.27;;;6.70;47.40;;;7.33;41.43;98622.81;5027751;28;20065;-43
2022/03/24 03:07:22;;;;;;;24.70;14.37;;;6.70;47.70;;;7.25;41.64;98622.53;5026253;28;20070;-42
2022/03/24 03:09:50;;;;;;;25.83;14.67;;;6.60;48.10;;;7.24;41.82;98624.34;5027534;28;20071;-42
2022/03/24 03:12:19;;;;;;;24.33;13.70;;;6.60;47.90;;;7.24;41.50;98612.91;5027572;28;20064;-42
2022/03/24 03:14:47;;;;;;;21.70;13.43;;;6.60;47.70;;;7.24;41.70;98615.53;5028397;28;20037;-42
2022/03/24 03:17:16;;;;;;;21.13;14.30;;;6.60;47.70;;;7.22;41.24;98614.81;5027624;28;20048;-42
2022/03/24 03:19:46;;;;;;;24.90;14.93;;;6.60;47.80;;;7.20;41.25;98622.03;5027104;28;20053;-42
2022/03/24 03:22:15;;;;;;;22.87;13.67;;;6.60;48.00;;;7.18;41.64;98619.50;5026587;28;20053;-42
2022/03/24 03:24:44;;;;;;;24.83;14.40;;;6.60;48.10;;;7.10;42.22;98622.72;5027640;28;20076;-42
2022/03/24 03:27:13;;;;;;;24.80;14.40;;;6.30;48.70;;;7.05;41.46;98629.31;5028161;28;20072;-42
2022/03/24 03:29:42;;;;;;;20.43;12.80;;;6.30;48.70;;;7.05;42.20;98627.50;5027569;28;20049;-42
2022/03/24 03:32:11;;;;;;;26.20;14.13;;;6.40;48.40;;;7.05;41.69;98624.88;5027195;28;20059;-42
2022/03/24 03:34:41;;;;;;;23.27;13.77;;;6.40;48.40;;;7.07;41.86;98632.69;5026815;28;20055;-43
2022/03/24 03:37:11;;;;;;;22.57;14.47;;;6.50;48.40;;;7.06;42.26;98629.22;5026266;28;20045;-42
2022/03/24 03:39:40;;;;;;;23.97;15.27;;;6.40;48.00;;;7.06;41.41;98625.75;5028177;28;20046;-42
2022/03/24 03:42:08;;;;;;;26.07;14.87;;;6.40;47.90;;;7.05;41.75;98627.50;5027292;28;20271;-42
2022/03/24 03:44:36;;;;;;;26.03;14.47;;;6.40;47.80;;;7.01;41.49;98620.75;5026970;28;20057;-42
2022/03/24 03:47:06;;;;;;;21.53;14.40;;;6.30;48.10;;;6.96;41.47;98630.88;5025849;28;20059;-42
2022/03/24 03:49:35;;;;;;;21.53;13.63;;;6.30;48.40;;;6.94;42.18;98637.22;5027438;28;20064;-42
2022/03/24 03:52:23;;;;;;;24.97;13.93;;;6.30;48.80;;;6.89;41.85;98637.56;5027511;28;20060;-42
2022/03/24 03:54:52;;;;;;;24.70;14.20;;;6.20;48.40;;;6.87;42.04;98634.19;5027529;28;20652;-42
2022/03/24 03:57:20;;;;;;;27.67;15.33;;;6.20;48.70;;;6.84;41.70;98631.75;5027209;28;20053;-41
2022/03/24 03:59:47;;;;;;;24.03;13.70;;;6.20;48.30;;;6.79;41.67;98637.41;5026554;28;20734;-41
2022/03/24 04:02:15;;;;;;;23.50;13.23;;;6.10;48.80;;;6.76;42.60;98634.97;5026246;28;20048;-41
2022/03/24 04:04:43;;;;;;;24.20;14.47;;;6.10;49.00;;;6.76;42.14;98634.97;5026496;28;20057;-41
2022/03/24 04:07:11;;;;;;;29.17;16.33;;;6.10;48.80;;;6.76;42.42;98640.28;5025715;28;20049;-41
2022/03/24 04:09:39;;;;;;;25.33;15.20;;;6.10;48.50;;;6.77;41.73;98634.03;5024835;28;20049;-41
2022/03/24 04:12:07;;;;;;;26.23;15.17;;;6.20;48.50;;;6.76;42.31;98636.78;5027099;28;20365;-41
2022/03/24 04:14:35;;;;;;;25.17;14.23;;;6.10;48.70;;;6.69;42.12;98642.53;5027440;28;20045;-41
2022/03/24 04:17:03;;;;;;;27.77;16.30;;;6.00;48.90;;;6.67;42.00;98636.50;5026904;28;20037;-41
2022/03/24 04:19:32;;;;;;;23.33;15.33;;;6.00;48.90;;;6.65;42.82;98633.13;5027182;28;20215;-41
2022/03/24 04:22:01;;;;;;;22.30;14.37;;;6.00;49.10;;;6.66;42.86;98641.91;5027196;28;20058;-41
2022/03/24 04:24:28;;;;;;;23.13;13.83;;;6.00;49.30;;;6.64;42.48;98639.38;5026427;28;20037;-41
2022/03/24 04:26:56;;;;;;;24.30;14.37;;;6.00;49.10;;;6.60;42.94;98640.56;5026965;28;20049;-40
2022/03/24 04:29:24;;;;;;;21.27;13.33;;;6.00;49.30;;;6.59;42.75;98638.88;5026464;28;20053;-40
2022/03/24 04:31:52;;;;;;;38.13;16.40;;;6.00;49.00;;;6.58;43.04;98641.63;5026473;28;20324;-40
2022/03/24 04:34:19;;;;;;;23.13;14.90;;;5.90;49.10;;;6.55;42.38;98640.03;5026017;28;20045;-40
2022/03/24 04:36:47;;;;;;;25.37;14.63;;;5.80;49.20;;;6.52;43.09;98634.97;5027044;28;20440;-41
2022/03/24 04:39:15;;;;;;;25.80;14.43;;;5.90;49.40;;;6.53;42.84;98638.47;5026307;28;20362;-40
2022/03/24 04:41:43;;;;;;;22.10;13.73;;;5.90;49.10;;;6.54;42.48;98646.28;5025306;28;20052;-41
2022/03/24 04:44:11;;;;;;;23.03;14.57;;;5.90;49.10;;;6.57;42.49;98642.56;5025810;28;20051;-41
2022/03/24 04:46:39;;;;;;;25.67;16.57;;;6.00;48.50;;;6.55;42.70;98647.97;5025202;28;20318;-40
2022/03/24 04:49:09;;;;;;;22.90;14.70;;;6.00;48.70;;;6.49;42.83;98654.56;5025276;28;20312;-40
2022/03/24 04:51:37;;;;;;;27.23;13.87;;;5.90;49.10;;;6.46;42.50;98656.59;5026126;28;20072;-40
2022/03/24 04:54:04;;;;;;;23.70;15.93;;;5.80;49.30;;;6.41;42.93;98648.97;5023306;28;20071;-40
2022/03/24 04:56:32;;;;;;;26.73;16.20;;;5.70;49.50;;;6.42;42.54;98657.78;5024898;28;20244;-40
2022/03/24 04:59:22;;;;;;;25.63;14.43;;;5.80;49.20;;;6.41;43.08;98650.78;5026275;28;20348;-40
2022/03/24 05:01:49;;;;;;;22.63;13.10;;;5.80;50.20;;;6.38;43.26;98651.84;5025785;28;20347;-41
2022/03/24 05:04:17;;;;;;;19.40;12.80;;;5.70;49.30;;;6.34;43.37;98650.38;5025600;28;20527;-41
2022/03/24 05:06:45;;;;;;;25.20;14.50;;;5.70;49.30;;;6.29;43.20;98655.16;5026635;28;20045;-41
2022/03/24 05:09:13;;;;;;;22.43;14.80;;;5.60;49.30;;;6.23;43.26;98653.78;5024475;28;20142;-41
2022/03/24 05:11:41;;;;;;;22.97;14.93;;;5.50;49.40;;;6.20;42.28;98655.81;5026244;28;20049;-41
2022/03/24 05:14:09;;;;;;;23.63;14.33;;;5.50;49.90;;;6.19;42.77;98649.66;5025697;28;20362;-41
2022/03/24 05:16:37;;;;;;;21.77;14.57;;;5.60;49.70;;;6.21;42.75;98654.84;5025881;28;20056;-41
2022/03/24 05:19:05;;;;;;;23.50;12.90;;;5.60;49.70;;;6.20;42.80;98651.34;5026241;28;20056;-41
2022/03/24 05:21:33;;;;;;;24.30;15.07;;;5.60;49.70;;;6.15;43.75;98650.00;5024989;28;20045;-40
2022/03/24 05:24:02;;;;;;;22.13;13.97;;;5.50;51.00;;;6.11;43.91;98652.03;5025268;28;20075;-40
2022/03/24 05:26:30;;;;;;;22.50;14.70;;;5.40;50.20;;;6.11;43.51;98654.66;5025261;28;20079;-40
2022/03/24 05:28:58;;;;;;;22.27;13.40;;;5.40;50.20;;;6.11;43.15;98652.03;5025600;28;20064;-40
2022/03/24 05:31:26;;;;;;;25.37;14.53;;;5.50;50.10;;;6.10;43.38;98666.19;5025233;28;20083;-40
2022/03/24 05:33:54;;;;;;;22.00;14.10;;;5.50;50.00;;;6.06;43.24;98665.53;5025241;28;20061;-40
2022/03/24 05:36:22;;;;;;;26.03;15.43;;;5.40;50.20;;;6.03;43.89;98659.63;5025097;28;20347;-40
2022/03/24 05:38:53;;;;;;;23.67;13.50;;;5.30;50.50;;;6.02;43.63;98665.88;5025915;28;20371;-40
2022/03/24 05:41:21;;;;;;;24.47;13.97;;;5.30;50.10;;;6.04;43.88;98666.63;5026162;28;20730;-40
2022/03/24 05:44:04;;;;;;;22.07;13.27;;;5.40;50.20;;;6.04;44.09;98670.09;5024943;28;20049;-40
2022/03/24 05:46:44;;;;;;;22.53;14.40;;;5.40;50.10;;;6.05;43.81;98668.31;5025107;28;20057;-40
2022/03/24 05:49:16;;;;;;;23.23;12.90;;;5.40;50.20;;;6.06;43.12;98670.84;5025860;28;20061;-40
2022/03/24 05:52:03;;;;;;;36.57;13.70;;;5.40;50.20;;;6.06;42.63;98670.84;5027832;28;20056;-40
2022/03/24 05:54:31;;;;;;;27.67;13.53;;;5.50;49.80;;;6.07;43.07;98667.25;5023880;28;20061;-40
2022/03/24 05:56:59;;;;;;;23.77;12.37;;;5.50;49.80;;;6.10;43.28;98674.13;5024658;28;20063;-41
2022/03/24 05:59:27;;;;;;;21.60;13.23;;;5.60;49.80;;;6.15;43.58;98671.16;5025066;28;20336;-40
2022/03/24 06:01:55;;;;;;;23.57;12.60;;;5.60;49.70;;;6.17;43.56;98680.66;5025024;28;20045;-40
2022/03/24 06:04:24;;;;;;;25.03;13.50;;;5.70;49.70;;;6.19;43.12;98681.41;5025240;28;20045;-40
2022/03/24 06:06:56;;;;;;;24.63;12.87;;;5.70;49.50;;;6.20;43.58;98675.16;5023779;28;20061;-41
2022/03/24 06:09:24;;;;;;;24.83;13.23;;;5.70;49.90;;;6.24;43.24;98678.41;5024793;28;20356;-40
2022/03/24 06:11:53;;;;;;;22.93;12.60;;;5.80;49.70;;;6.28;43.12;98682.53;5023425;28;20049;-40
2022/03/24 06:14:20;;;;;;;22.67;13.37;;;5.80;49.50;;;6.30;43.11;98681.50;5025462;28;20045;-40
2022/03/24 06:16:48;;;;;;;21.33;13.07;;;5.80;49.50;;;6.32;43.34;98676.09;5024433;28;20041;-40
2022/03/24 06:19:17;;;;;;;19.47;12.77;;;5.80;49.70;;;6.37;43.38;98684.53;5021647;28;20061;-40
2022/03/24 06:21:45;;;;;;;23.57;13.63;;;5.90;49.70;;;6.40;43.39;98686.97;5024497;28;20068;-41
2022/03/24 06:24:13;;;;;;;23.83;14.00;;;5.90;49.50;;;6.44;43.07;98688.44;5024812;28;20057;-41
2022/03/24 06:26:41;;;;;;;21.90;12.70;;;6.00;49.50;;;6.48;43.27;98687.25;5024338;28;20265;-41
2022/03/24 06:29:11;;;;;;;25.50;13.93;;;6.10;49.50;;;6.52;43.09;98687.91;5023073;28;20069;-41
2022/03/24 06:31:41;;;;;;;25.97;13.87;;;6.10;49.30;;;6.56;43.52;98685.88;5023844;28;20061;-41
2022/03/24 06:34:09;;;;;;;23.93;15.23;;;6.10;49.20;;;6.61;43.55;98689.00;5024323;28;20053;-41
2022/03/24 06:36:37;;;;;;;21.97;12.87;;;6.20;48.90;;;6.65;43.37;98688.72;5024043;28;20053;-41
2022/03/24 06:39:06;;;;;;;20.33;13.33;;;6.30;48.80;;;6.71;43.63;98679.47;5023954;28;20067;-41
2022/03/24 06:41:35;;;;;;;20.83;11.47;;;6.30;48.30;;;6.76;42.83;98681.78;5025444;28;20080;-41
2022/03/24 06:44:06;;;;;;;24.00;15.53;;;6.40;47.90;;;6.81;43.21;98677.00;5023273;28;20053;-41
2022/03/24 06:46:34;;;;;;;25.03;15.43;;;6.50;48.50;;;6.87;42.27;98676.56;5023045;28;20061;-41
2022/03/24 06:49:05;;;;;;;26.13;16.03;;;6.60;47.50;;;6.95;42.37;98681.28;5023307;28;20054;-42
2022/03/24 06:51:34;;;;;;;28.27;15.50;;;6.60;47.20;;;6.99;42.50;98675.63;5024654;28;20060;-41
2022/03/24 06:54:04;;;;;;;21.73;13.13;;;6.70;47.00;;;7.04;42.42;98676.16;5021432;28;20071;-41
2022/03/24 06:56:32;;;;;;;20.77;13.33;;;6.80;46.60;;;7.12;42.56;98686.19;5022256;28;20049;-41
2022/03/24 06:59:00;;;;;;;20.63;13.10;;;6.90;46.80;;;7.19;42.00;98683.91;5024188;28;20057;-40
2022/03/24 07:01:27;;;;;;;19.80;12.00;;;6.90;46.40;;;7.22;42.06;98687.16;5022163;28;20076;-41
2022/03/24 07:03:56;;;;;;;22.53;13.10;;;7.00;45.70;;;7.29;41.44;98679.63;5024052;28;20064;-41
2022/03/24 07:06:23;;;;;;;21.73;11.57;;;7.10;45.40;;;7.36;41.90;98683.47;5024053;28;20053;-40
2022/03/24 07:08:51;;;;;;;20.20;12.27;;;7.20;45.30;;;7.44;41.18;98688.22;5024064;28;20057;-41
2022/03/24 07:11:19;;;;;;;20.20;13.00;;;7.20;45.20;;;7.48;41.53;98693.19;5024140;28;20064;-41
2022/03/24 07:13:47;;;;;;;22.97;13.77;;;7.20;45.00;;;7.55;42.15;98687.41;5022799;28;20165;-41
2022/03/24 07:16:15;;;;;;;30.57;16.17;;;7.30;46.00;;;7.61;42.81;98690.41;5024524;28;20115;-41
2022/03/24 07:18:43;;;;;;;23.50;15.83;;;7.40;47.80;;;7.65;43.02;98694.53;5024075;28;20339;-41
2022/03/24 07:21:10;;;;;;;34.53;18.47;;;7.40;49.30;;;7.69;43.66;98690.66;5024566;28;20123;-41
2022/03/24 07:23:38;;;;;;;28.17;16.23;;;7.50;50.20;;;7.72;43.82;98689.63;5024006;28;20056;-41
2022/03/24 07:26:06;;;;;;;26.10;15.67;;;7.50;51.40;;;7.74;44.20;98685.03;5024765;28;20061;-40
2022/03/24 07:28:34;;;;;;;27.43;16.63;;;7.50;50.80;;;7.78;44.49;98691.78;5023745;28;20116;-41
2022/03/24 07:31:11;;;;;;;35.90;16.37;;;7.50;50.80;;;7.81;44.56;98691.56;5024523;28;20053;-41
2022/03/24 07:33:39;;;;;;;21.53;14.83;;;7.60;51.30;;;7.85;44.38;98690.38;5026721;28;20049;-43
2022/03/24 07:36:07;;;;;;;22.73;16.00;;;7.60;50.40;;;7.88;44.65;98691.91;5027875;28;20347;-44
2022/03/24 07:38:35;;;;;;;25.90;16.80;;;7.70;50.60;;;7.94;44.60;98695.91;5025417;28;20057;-43
2022/03/24 07:41:03;;;;;;;25.07;15.73;;;7.70;50.50;;;7.98;44.25;98694.69;5023838;28;20099;-43
2022/03/24 07:43:31;;;;;;;24.80;15.77;;;7.80;50.30;;;8.03;44.59;98704.00;5026753;28;20120;-42
2022/03/24 07:45:59;;;;;;;25.17;16.27;;;7.80;50.40;;;8.07;44.74;98707.25;5026923;28;20041;-43
2022/03/24 07:48:27;;;;;;;24.97;16.20;;;7.80;50.40;;;8.11;44.51;98703.41;5021287;28;20288;-42
2022/03/24 07:50:57;;;;;;;28.00;17.10;;;7.90;50.50;;;8.15;44.78;98701.34;5008688;28;20057;-43
2022/03/24 07:53:27;;;;;;;25.17;17.47;;;8.00;50.60;;;8.22;44.58;98705.19;5007255;28;20090;-41
2022/03/24 07:55:57;;;;;;;26.63;15.37;;;8.00;50.70;;;8.28;44.47;98710.03;5004388;28;20049;-44
2022/03/24 07:58:26;;;;;;;23.23;14.87;;;8.10;50.60;;;8.34;44.67;98709.56;5007475;28;20328;-42
2022/03/24 08:00:57;;;;;;;23.90;15.40;;;8.20;50.70;;;8.41;44.57;98709.91;5008398;28;20252;-41
2022/03/24 08:03:25;;;;;;;22.70;15.70;;;8.20;50.80;;;8.45;44.68;98706.94;5007066;28;20053;-42
2022/03/24 08:05:53;;;;;;;25.73;15.90;;;8.30;50.90;;;8.53;45.05;98710.75;5006215;28;20149;-41
2022/03/24 08:08:21;;;;;;;26.20;14.50;;;8.40;50.90;;;8.57;45.14;98707.75;5006949;28;20049;-41
2022/03/24 08:10:51;;;;;;;26.33;16.23;;;8.50;51.00;;;8.64;45.13;98708.09;5005004;28;20128;-41
2022/03/24 08:13:21;;;;;;;25.83;15.97;;;8.50;51.30;;;8.70;45.33;98712.91;5007757;28;20056;-41
2022/03/24 08:15:50;;;;;;;30.70;17.80;;;8.60;51.40;;;8.76;45.42;98704.47;5007641;28;20060;-42
2022/03/24 08:18:19;;;;;;;26.70;16.73;;;8.70;51.50;;;8.83;45.67;98715.44;5006793;28;20065;-42
2022/03/24 08:20:48;;;;;;;29.87;16.60;;;8.70;51.70;;;8.92;45.35;98709.38;5007076;28;20050;-42
2022/03/24 08:23:17;;;;;;;29.10;18.33;;;8.90;51.60;;;8.99;45.49;98713.22;5006319;28;20049;-41
2022/03/24 08:25:45;;;;;;;27.10;16.80;;;8.90;51.40;;;9.06;45.33;98709.09;5006881;28;20315;-42
2022/03/24 08:28:13;;;;;;;26.30;16.60;;;9.00;51.10;;;9.13;45.17;98712.09;5006887;28;20063;-42
2022/03/24 08:30:44;;;;;;;27.17;16.57;;;9.10;51.00;;;9.20;45.18;98709.78;5006847;28;20053;-41
2022/03/24 08:33:13;;;;;;;37.63;20.60;;;9.20;50.60;;;9.26;44.99;98712.75;5005887;28;20045;-42
2022/03/24 08:35:42;;;;;;;32.50;17.73;;;9.20;50.30;;;9.33;45.01;98714.94;5007329;28;20057;-42
2022/03/24 08:38:10;;;;;;;23.60;15.70;;;9.30;50.50;;;9.39;44.75;98717.91;5005859;28;20262;-42
2022/03/24 08:40:38;;;;;;;36.37;19.77;;;9.30;50.20;;;9.44;44.82;98718.38;5006274;28;20060;-43
2022/03/24 08:43:07;;;;;;;31.40;17.77;;;9.40;49.90;;;9.52;44.45;98716.88;5007701;28;20050;-42
2022/03/24 08:45:37;;;;;;;30.73;17.87;;;9.50;49.70;;;9.55;44.38;98712.16;5004812;28;20052;-41
2022/03/24 08:48:06;;;;;;;31.40;17.50;;;9.50;50.30;;;9.63;44.33;98717.69;5007808;28;20057;-42
2022/03/24 08:50:35;;;;;;;34.97;18.63;;;9.60;49.40;;;9.71;44.63;98714.34;5005728;28;20079;-42
2022/03/24 08:53:04;;;;;;;32.77;19.67;;;9.70;49.40;;;9.77;44.08;98713.00;5023858;28;20079;-42
2022/03/24 08:55:33;;;;;;;31.23;18.60;;;9.80;49.00;;;9.83;44.29;98713.34;5025577;28;20312;-42
2022/03/24 08:58:02;;;;;;;29.27;17.50;;;9.80;49.00;;;9.92;43.84;98722.34;5040897;28;20057;-42
2022/03/24 09:00:31;;;;;;;33.77;19.60;;;9.90;48.90;;;9.96;43.68;98721.09;5030224;28;20049;-41
2022/03/24 09:02:59;;;;;;;31.60;19.37;;;10.00;48.40;;;10.01;43.88;98721.56;5034048;28;20255;-42
2022/03/24 09:05:27;;;;;;;39.03;19.67;;;10.00;48.40;;;10.08;43.58;98729.00;5035988;28;20037;-41
2022/03/24 09:07:55;;;;;;;31.50;17.57;;;10.10;48.50;;;10.16;43.71;98723.91;5031723;28;20063;-41
2022/03/24 09:10:23;;;;;;;30.70;18.33;;;10.20;48.20;;;10.21;43.34;98730.47;5035030;28;20050;-41
2022/03/24 09:12:50;;;;;;;32.77;19.83;;;10.20;48.10;;;10.27;42.98;98723.78;5035391;28;20044;-41
2022/03/24 09:15:19;;;;;;;31.80;18.87;;;10.30;47.50;;;10.36;43.03;98732.84;5032125;28;20068;-43
2022/03/24 09:17:48;;;;;;;31.37;20.53;;;10.30;47.20;;;10.42;42.31;98726.97;5034547;28;20258;-44
2022/03/24 09:20:18;;;;;;;30.53;19.53;;;10.40;46.60;;;10.50;42.26;98723.63;5029684;28;20057;-43
2022/03/24 09:22:48;;;;;;;34.77;19.70;;;10.60;46.10;;;10.56;41.96;98723.94;5026676;28;20131;-42
2022/03/24 09:25:19;;;;;;;31.57;19.77;;;10.60;45.30;;;10.64;41.27;98720.59;5025349;28;20046;-42
2022/03/24 09:27:47;;;;;;;33.10;19.23;;;10.70;44.40;;;10.66;40.75;98726.63;5024372;28;20235;-42
2022/03/24 09:30:18;;;;;;;32.37;19.23;;;10.80;44.10;;;10.72;41.35;98727.91;5025251;28;20079;-42
2022/03/24 09:32:48;;;;;;;29.73;19.40;;;10.80;44.50;;;10.78;41.47;98717.56;5026053;28;20259;-42
2022/03/24 09:35:16;;;;;;;34.60;19.67;;;10.90;44.70;;;10.88;40.86;98728.25;5025784;28;20049;-42
2022/03/24 09:37:45;;;;;;;27.73;18.63;;;10.90;44.50;;;10.96;40.95;98719.56;5024649;28;20252;-42
2022/03/24 09:40:14;;;;;;;34.93;21.00;;;11.00;44.10;;;11.05;40.70;98726.75;5025430;28;20216;-43
2022/03/24 09:42:42;;;;;;;31.63;19.83;;;11.10;44.00;;;11.16;40.35;98731.09;5024546;28;20276;-43
2022/03/24 09:45:13;;;;;;;31.73;17.97;;;11.20;43.50;;;11.21;40.50;98727.03;5031655;28;20053;-43
2022/03/24 09:47:42;;;;;;;32.43;16.50;;;11.30;43.30;;;11.29;40.49;98728.19;5033599;28;20102;-42
2022/03/24 09:50:12;;;;;;;29.13;17.60;;;11.40;44.10;;;11.34;40.42;98726.78;5035907;28;20193;-42
2022/03/24 09:52:40;;;;;;;36.22;20.65;;;11.40;43.20;;;11.42;40.23;98721.56;5034493;28;20060;-41
2022/03/24 09:55:16;;;;;;;28.40;18.20;;;11.50;42.90;;;11.48;39.93;98725.50;5037510;28;20063;-42
2022/03/24 09:57:47;;;;;;;30.27;17.40;;;11.50;42.60;;;11.55;39.50;98720.44;5035493;28;20056;-42
2022/03/24 10:00:35;;;;;;;36.77;20.23;;;11.60;42.50;;;11.60;39.49;98726.22;5035011;28;20049;-41
2022/03/24 10:03:15;;;;;;;29.27;17.02;;;11.70;42.40;;;11.66;38.66;98714.13;5035462;28;20060;-41
2022/03/24 10:06:07;;;;;;;28.33;18.00;;;11.70;41.90;;;11.72;38.68;98718.91;5036007;28;20049;-41
2022/03/24 10:08:37;;;;;;;32.63;18.13;;;11.80;40.90;;;11.83;38.83;98721.41;5035722;28;20059;-42
2022/03/24 10:11:18;;;;;;;31.57;18.33;;;11.90;41.70;;;11.87;39.16;98714.81;5036327;28;20063;-42
2022/03/24 10:14:02;;;;;;;29.77;18.77;;;12.00;41.50;;;11.89;38.10;98710.19;5036202;28;20152;-42
2022/03/24 10:16:43;;;;;;;28.48;18.25;;;12.10;41.40;;;11.91;38.66;98710.88;5033154;28;20067;-42
2022/03/24 10:19:18;;;;;;;29.38;19.55;;;12.10;40.70;;;11.97;38.60;98715.66;5035192;28;20037;-42
2022/03/24 10:21:51;;;;;;;29.58;18.52;;;12.20;40.80;;;12.02;38.56;98710.72;5034791;28;20155;-42
2022/03/24 10:24:22;;;;;;;28.42;18.02;;;12.20;40.70;;;12.07;38.06;98714.78;5034795;28;20049;-41
2022/03/24 10:27:00;;;;;;;28.20;18.25;;;12.30;40.20;;;12.13;38.27;98711.53;5034205;28;20129;-42